createdAt,value
2022-12-12T00:01:34.561Z,2.20
2022-12-12T00:04:10.772Z,2.10
2022-12-12T00:06:37.940Z,2.20
2022-12-12T00:09:09.637Z,2.20
2022-12-12T00:11:41.879Z,2.20
2022-12-12T00:14:14.945Z,2.30
2022-12-12T00:17:07.225Z,2.30
2022-12-12T00:19:37.208Z,2.20
2022-12-12T00:22:04.282Z,2.20
2022-12-12T00:24:38.496Z,2.30
2022-12-12T00:27:08.518Z,2.20
2022-12-12T00:29:36.108Z,2.20
2022-12-12T00:32:03.154Z,2.20
2022-12-12T00:34:35.551Z,2.30
2022-12-12T00:37:02.605Z,2.20
2022-12-12T00:39:35.892Z,2.20
2022-12-12T00:42:07.456Z,2.20
2022-12-12T00:44:34.424Z,2.20
2022-12-12T00:47:04.722Z,2.10
2022-12-12T00:49:35.504Z,2.20
2022-12-12T00:52:02.658Z,2.20
2022-12-12T00:54:32.613Z,2.30
2022-12-12T00:56:59.619Z,2.40
2022-12-12T00:59:28.153Z,2.40
2022-12-12T01:01:55.207Z,2.30
2022-12-12T01:04:25.349Z,2.40
2022-12-12T01:06:58.573Z,2.40
2022-12-12T01:09:28.793Z,2.10
2022-12-12T01:11:55.732Z,2.00
2022-12-12T01:14:27.065Z,2.00
2022-12-12T01:16:57.029Z,2.10
2022-12-12T01:19:35.914Z,2.00
2022-12-12T01:22:05.580Z,2.10
2022-12-12T01:24:38.788Z,2.20
2022-12-12T01:27:06.413Z,2.30
2022-12-12T01:29:37.607Z,2.30
2022-12-12T01:32:10.961Z,2.30
2022-12-12T01:34:40.709Z,2.30
2022-12-12T01:37:10.700Z,2.10
2022-12-12T01:39:37.767Z,2.00
2022-12-12T01:42:04.974Z,2.10
2022-12-12T01:44:43.840Z,2.00
2022-12-12T01:47:20.544Z,2.10
2022-12-12T01:49:52.675Z,1.90
2022-12-12T01:52:25.492Z,1.90
2022-12-12T01:54:58.540Z,1.80
2022-12-12T01:57:30.583Z,1.90
2022-12-12T02:00:08.600Z,1.90
2022-12-12T02:02:42.443Z,2.00
2022-12-12T02:05:19.059Z,2.10
2022-12-12T02:07:49.537Z,2.10
2022-12-12T02:10:16.679Z,2.20
2022-12-12T02:12:43.819Z,2.30
2022-12-12T02:15:30.929Z,2.30
2022-12-12T02:18:08.646Z,2.10
2022-12-12T02:20:57.943Z,2.20
2022-12-12T02:24:25.783Z,2.20
2022-12-12T02:27:30.120Z,2.20
2022-12-12T02:30:22.260Z,2.30
2022-12-12T02:33:18.796Z,2.20
2022-12-12T02:35:59.524Z,2.20
2022-12-12T02:38:31.594Z,2.30
2022-12-12T02:41:23.860Z,2.30
2022-12-12T02:47:06.289Z,2.30
2022-12-12T02:49:39.845Z,2.30
2022-12-12T02:52:09.294Z,2.30
2022-12-12T02:54:36.991Z,2.30
2022-12-12T02:57:14.787Z,2.30
2022-12-12T02:59:55.221Z,2.20
2022-12-12T03:03:28.242Z,2.20
2022-12-12T03:06:39.299Z,2.20
2022-12-12T03:09:17.573Z,2.20
2022-12-12T03:12:01.494Z,2.30
2022-12-12T03:14:44.772Z,2.30
2022-12-12T03:17:28.852Z,2.20
2022-12-12T03:20:01.067Z,2.20
2022-12-12T03:22:38.443Z,2.20
2022-12-12T03:25:11.397Z,2.10
2022-12-12T03:27:45.405Z,2.20
2022-12-12T03:30:18.524Z,2.20
2022-12-12T03:32:55.667Z,2.00
2022-12-12T03:35:27.474Z,2.00
2022-12-12T03:38:05.547Z,2.10
2022-12-12T03:40:39.962Z,2.10
2022-12-12T03:43:11.072Z,2.10
2022-12-12T03:45:45.912Z,2.20
2022-12-12T03:48:18.508Z,2.20
2022-12-12T03:50:49.640Z,2.20
2022-12-12T03:53:28.519Z,2.30
2022-12-12T03:56:01.186Z,2.30
2022-12-12T03:58:33.007Z,2.30
2022-12-12T04:01:04.704Z,2.30
2022-12-12T04:03:41.156Z,2.30
2022-12-12T04:06:30.966Z,2.30
2022-12-12T04:09:23.369Z,2.20
2022-12-12T04:12:32.997Z,2.10
2022-12-12T04:15:46.962Z,2.20
2022-12-12T04:18:33.537Z,2.20
2022-12-12T04:21:34.792Z,2.20
2022-12-12T04:24:16.306Z,2.20
2022-12-12T04:26:49.447Z,2.30
2022-12-12T04:29:37.937Z,2.40
2022-12-12T04:32:23.066Z,2.30
2022-12-12T04:35:07.253Z,2.20
2022-12-12T04:37:39.049Z,2.20
2022-12-12T04:40:12.278Z,2.20
2022-12-12T04:42:44.416Z,2.20
2022-12-12T04:45:17.369Z,2.20
2022-12-12T04:47:47.388Z,2.20
2022-12-12T04:50:16.045Z,2.10
2022-12-12T04:52:48.444Z,2.10
2022-12-12T04:55:29.104Z,2.20
2022-12-12T04:57:56.518Z,2.20
2022-12-12T05:00:25.324Z,2.10
2022-12-12T05:02:58.387Z,2.20
2022-12-12T05:05:29.659Z,2.10
2022-12-12T05:08:05.511Z,2.20
2022-12-12T05:10:33.932Z,2.20
2022-12-12T05:13:01.469Z,2.20
2022-12-12T05:15:31.464Z,2.20
2022-12-12T05:18:06.420Z,2.10
2022-12-12T05:20:33.763Z,2.10
2022-12-12T05:23:00.883Z,2.10
2022-12-12T05:25:30.651Z,2.20
2022-12-12T05:28:05.185Z,2.20
2022-12-12T05:30:32.473Z,2.30
2022-12-12T05:32:59.734Z,2.30
2022-12-12T05:35:27.441Z,2.40
2022-12-12T05:38:03.492Z,2.30
2022-12-12T05:40:35.662Z,2.30
2022-12-12T05:43:09.496Z,2.20
2022-12-12T05:45:36.538Z,2.10
2022-12-12T05:48:06.882Z,2.10
2022-12-12T05:50:34.104Z,2.10
2022-12-12T05:53:01.029Z,2.20
2022-12-12T05:55:30.944Z,2.30
2022-12-12T05:57:58.076Z,2.30
2022-12-12T06:00:31.579Z,2.30
2022-12-12T06:02:58.773Z,2.30
2022-12-12T06:05:25.826Z,2.30
2022-12-12T06:07:53.036Z,2.20
2022-12-12T06:10:20.220Z,2.10
2022-12-12T06:12:56.685Z,2.20
2022-12-12T06:15:25.798Z,2.20
2022-12-12T06:17:54.147Z,2.10
2022-12-12T06:20:21.081Z,2.00
2022-12-12T06:22:54.142Z,2.10
2022-12-12T06:25:21.384Z,2.00
2022-12-12T06:27:48.323Z,2.00
2022-12-12T06:30:15.559Z,2.10
2022-12-12T06:32:43.044Z,2.00
2022-12-12T06:35:12.525Z,2.00
2022-12-12T06:37:40.399Z,2.00
2022-12-12T06:40:09.265Z,2.10
2022-12-12T06:42:36.185Z,2.10
2022-12-12T06:45:03.886Z,2.20
2022-12-12T06:47:30.995Z,2.20
2022-12-12T06:49:58.120Z,2.10
2022-12-12T06:52:26.629Z,2.10
2022-12-12T06:54:53.612Z,2.10
2022-12-12T06:57:20.741Z,2.20
2022-12-12T06:59:51.095Z,2.20
2022-12-12T07:02:26.010Z,2.20
2022-12-12T07:05:05.241Z,2.30
2022-12-12T07:07:33.924Z,2.30
2022-12-12T07:10:00.869Z,2.30
2022-12-12T07:12:27.835Z,2.30
2022-12-12T07:14:54.833Z,2.30
2022-12-12T07:17:22.604Z,2.20
2022-12-12T07:19:52.755Z,2.30
2022-12-12T07:22:19.692Z,2.40
2022-12-12T07:24:48.220Z,2.50
2022-12-12T07:27:20.097Z,2.50
2022-12-12T07:29:48.959Z,2.50
2022-12-12T07:32:15.934Z,2.50
2022-12-12T07:34:43.142Z,2.50
2022-12-12T07:37:10.313Z,2.60
2022-12-12T07:39:38.075Z,2.50
2022-12-12T07:42:06.714Z,2.50
2022-12-12T07:44:33.717Z,2.50
2022-12-12T07:47:00.868Z,2.60
2022-12-12T07:49:29.655Z,2.60
2022-12-12T07:51:56.671Z,2.60
2022-12-12T07:54:23.827Z,2.60
2022-12-12T07:56:50.930Z,2.50
2022-12-12T07:59:19.379Z,2.40
2022-12-12T08:01:46.442Z,2.40
2022-12-12T08:04:13.530Z,2.50
2022-12-12T08:06:40.484Z,2.50
2022-12-12T08:09:07.810Z,2.50
2022-12-12T08:11:35.019Z,2.50
2022-12-12T08:14:02.087Z,2.60
2022-12-12T08:16:30.637Z,2.70
2022-12-12T08:19:01.052Z,2.70
2022-12-12T08:21:28.627Z,2.60
2022-12-12T08:23:57.393Z,2.50
2022-12-12T08:26:31.884Z,2.60
2022-12-12T08:28:59.853Z,2.60
2022-12-12T08:31:28.017Z,2.60
2022-12-12T08:33:57.122Z,2.70
2022-12-12T08:36:30.233Z,2.70
2022-12-12T08:38:58.259Z,2.70
2022-12-12T08:41:25.460Z,2.80
2022-12-12T08:43:52.531Z,2.80
2022-12-12T08:46:21.690Z,2.80
2022-12-12T08:48:49.580Z,2.90
2022-12-12T08:51:19.236Z,2.80
2022-12-12T08:53:48.261Z,2.80
2022-12-12T08:56:19.940Z,2.80
2022-12-12T08:58:47.822Z,2.90
2022-12-12T09:01:18.172Z,2.90
2022-12-12T09:03:52.947Z,2.90
2022-12-12T09:06:22.445Z,2.80
2022-12-12T09:08:52.871Z,2.90
2022-12-12T09:11:20.211Z,2.90
2022-12-12T09:13:50.509Z,2.90
2022-12-12T09:16:19.705Z,2.80
2022-12-12T09:18:49.294Z,2.80
2022-12-12T09:21:17.452Z,2.80
2022-12-12T09:23:46.103Z,2.80
2022-12-12T09:26:13.119Z,2.70
2022-12-12T09:28:40.072Z,2.80
2022-12-12T09:31:12.820Z,2.80
2022-12-12T09:33:43.060Z,2.90
2022-12-12T09:36:28.208Z,2.90
2022-12-12T09:38:57.193Z,2.90
2022-12-12T09:41:27.093Z,2.80
2022-12-12T09:44:03.556Z,2.90
2022-12-12T09:46:35.429Z,2.80
2022-12-12T09:49:15.312Z,2.90
2022-12-12T09:51:49.739Z,2.80
2022-12-12T09:54:21.818Z,2.90
2022-12-12T09:57:05.006Z,2.90
2022-12-12T09:59:51.772Z,2.90
2022-12-12T10:02:39.274Z,2.90
2022-12-12T10:05:24.553Z,2.90
2022-12-12T10:08:06.324Z,2.90
2022-12-12T10:10:41.895Z,3.00
2022-12-12T10:13:19.202Z,3.00
2022-12-12T10:15:59.952Z,2.90
2022-12-12T10:18:38.731Z,2.90
2022-12-12T10:21:26.257Z,2.90
2022-12-12T10:24:04.966Z,3.00
2022-12-12T10:26:33.405Z,2.90
2022-12-12T10:29:09.314Z,2.90
2022-12-12T10:31:53.206Z,2.90
2022-12-12T10:34:35.968Z,2.80
2022-12-12T10:37:24.476Z,2.80
2022-12-12T10:40:06.251Z,2.80
2022-12-12T10:42:43.767Z,2.80
2022-12-12T10:45:52.944Z,2.80
2022-12-12T10:48:20.124Z,2.90
2022-12-12T10:50:53.955Z,3.00
2022-12-12T10:53:22.040Z,3.10
2022-12-12T10:55:55.626Z,3.00
2022-12-12T10:58:28.604Z,3.00
2022-12-12T11:01:05.705Z,3.10
2022-12-12T11:03:39.945Z,3.10
2022-12-12T11:06:15.658Z,3.10
2022-12-12T11:08:54.966Z,3.10
2022-12-12T11:11:26.102Z,3.10
2022-12-12T11:14:00.495Z,3.10
2022-12-12T11:16:42.597Z,3.20
2022-12-12T11:19:20.114Z,3.20
2022-12-12T11:21:54.598Z,3.10
2022-12-12T11:24:31.687Z,3.20
2022-12-12T11:27:00.928Z,3.20
2022-12-12T11:29:46.186Z,3.20
2022-12-12T11:32:15.790Z,3.20
2022-12-12T11:34:59.775Z,3.20
2022-12-12T11:37:46.927Z,3.20
2022-12-12T11:40:27.216Z,3.20
2022-12-12T11:43:24.678Z,3.20
2022-12-12T11:46:19.770Z,3.20
2022-12-12T11:49:01.883Z,3.20
2022-12-12T11:51:38.513Z,3.30
2022-12-12T11:54:14.160Z,3.30
2022-12-12T11:56:59.867Z,3.40
2022-12-12T12:00:11.917Z,3.40
2022-12-12T12:03:06.109Z,3.40
2022-12-12T12:05:57.347Z,3.40
2022-12-12T12:08:48.330Z,3.50
2022-12-12T12:11:30.057Z,3.50
2022-12-12T12:14:20.430Z,3.50
2022-12-12T12:17:01.599Z,3.50
2022-12-12T12:19:38.712Z,3.60
2022-12-12T12:22:18.401Z,3.60
2022-12-12T12:25:30.366Z,3.50
2022-12-12T12:28:43.181Z,3.40
2022-12-12T12:31:21.904Z,3.30
2022-12-12T12:34:18.931Z,3.20
2022-12-12T12:37:14.110Z,3.20
2022-12-12T12:40:16.067Z,3.20
2022-12-12T12:43:03.351Z,3.10
2022-12-12T12:45:45.695Z,3.10
2022-12-12T12:48:19.841Z,3.10
2022-12-12T12:51:00.003Z,3.10
2022-12-12T12:53:36.805Z,3.10
2022-12-12T12:56:25.235Z,3.10
2022-12-12T12:59:16.014Z,3.10
2022-12-12T13:01:47.179Z,3.20
2022-12-12T13:04:19.968Z,3.20
2022-12-12T13:07:02.287Z,3.10
2022-12-12T13:09:41.015Z,3.20
2022-12-12T13:12:32.051Z,3.20
2022-12-12T13:15:04.293Z,3.20
2022-12-12T13:17:55.476Z,3.30
2022-12-12T13:20:25.737Z,3.40
2022-12-12T13:23:10.760Z,3.30
2022-12-12T13:25:50.783Z,3.40
2022-12-12T13:28:23.407Z,3.40
2022-12-12T13:31:17.016Z,3.30
2022-12-12T13:33:51.104Z,3.30
2022-12-12T13:36:35.911Z,3.20
2022-12-12T13:39:06.140Z,3.20
2022-12-12T13:42:03.046Z,3.10
2022-12-12T13:44:39.208Z,3.10
2022-12-12T13:47:59.620Z,3.10
2022-12-12T13:50:29.919Z,3.20
2022-12-12T13:53:19.803Z,3.40
2022-12-12T13:56:40.937Z,3.70
2022-12-12T13:59:29.548Z,3.80
2022-12-12T14:02:01.015Z,3.60
2022-12-12T14:04:31.159Z,3.40
2022-12-12T14:07:05.378Z,3.20
2022-12-12T14:09:55.295Z,3.30
2022-12-12T14:12:31.033Z,3.30
2022-12-12T14:15:03.896Z,3.30
2022-12-12T14:17:40.053Z,3.40
2022-12-12T14:20:27.435Z,3.30
2022-12-12T14:23:31.437Z,3.20
2022-12-12T14:26:02.277Z,3.30
2022-12-12T14:28:32.370Z,3.30
2022-12-12T14:31:11.619Z,3.40
2022-12-12T14:34:10.470Z,3.30
2022-12-12T14:37:21.939Z,3.30
2022-12-12T14:40:00.854Z,3.20
2022-12-12T14:43:20.864Z,3.30
2022-12-12T14:45:36.792Z,3.30
2022-12-12T14:48:27.394Z,3.20
2022-12-12T14:51:01.169Z,3.30
2022-12-12T14:53:41.887Z,3.20
2022-12-12T14:56:11.439Z,3.10
2022-12-12T14:58:42.691Z,3.10
2022-12-12T15:01:10.667Z,3.10
2022-12-12T15:03:44.733Z,3.10
2022-12-12T15:06:37.589Z,3.20
2022-12-12T15:09:22.739Z,3.10
2022-12-12T15:11:50.846Z,3.20
2022-12-12T15:14:21.649Z,3.20
2022-12-12T15:16:54.566Z,3.20
2022-12-12T15:19:29.193Z,3.10
2022-12-12T15:21:58.031Z,3.20
2022-12-12T15:24:27.719Z,3.20
2022-12-12T15:26:57.415Z,3.20
2022-12-12T15:29:31.518Z,3.10
2022-12-12T15:32:04.257Z,3.20
2022-12-12T15:34:37.219Z,3.20
2022-12-12T15:37:24.017Z,3.30
2022-12-12T15:40:02.445Z,3.30
2022-12-12T15:42:33.347Z,3.20
2022-12-12T15:45:06.695Z,3.20
2022-12-12T15:47:45.865Z,3.20
2022-12-12T15:50:23.545Z,3.20
2022-12-12T15:53:13.185Z,3.10
2022-12-12T15:55:59.879Z,3.10
2022-12-12T15:58:33.852Z,3.10
2022-12-12T16:01:20.453Z,3.10
2022-12-12T16:04:00.955Z,3.10
2022-12-12T16:06:31.300Z,3.20
2022-12-12T16:09:10.289Z,3.10
2022-12-12T16:11:45.180Z,3.20
2022-12-12T16:14:43.306Z,3.10
2022-12-12T16:17:13.786Z,3.20
2022-12-12T16:19:47.791Z,3.00
2022-12-12T16:22:34.934Z,3.10
2022-12-12T16:25:17.527Z,3.10
2022-12-12T16:27:52.487Z,3.00
2022-12-12T16:30:22.341Z,3.00
2022-12-12T16:32:52.049Z,3.00
2022-12-12T16:35:27.237Z,2.90
2022-12-12T16:37:58.529Z,2.90
2022-12-12T16:40:27.590Z,2.90
2022-12-12T16:43:03.652Z,2.90
2022-12-12T16:45:36.301Z,2.90
2022-12-12T16:48:14.666Z,2.90
2022-12-12T16:50:41.880Z,3.00
2022-12-12T16:53:10.288Z,2.90
2022-12-12T16:55:41.410Z,2.90
2022-12-12T16:58:11.504Z,2.80
2022-12-12T17:00:39.925Z,2.80
2022-12-12T17:03:14.212Z,2.90
2022-12-12T17:05:45.780Z,2.90
2022-12-12T17:08:18.095Z,2.90
2022-12-12T17:10:46.751Z,2.70
2022-12-12T17:13:25.034Z,2.70
2022-12-12T17:15:54.002Z,2.80
2022-12-12T17:18:27.284Z,2.80
2022-12-12T17:20:57.223Z,2.80
2022-12-12T17:23:28.560Z,2.80
2022-12-12T17:26:04.407Z,2.80
2022-12-12T17:28:34.004Z,2.80
2022-12-12T17:31:02.077Z,2.80
2022-12-12T17:33:29.361Z,2.80
2022-12-12T17:36:07.851Z,2.70
2022-12-12T17:38:36.190Z,2.80
2022-12-12T17:41:08.719Z,2.90
2022-12-12T17:43:42.271Z,2.90
2022-12-12T17:46:14.676Z,2.90
2022-12-12T17:48:43.806Z,3.00
2022-12-12T17:51:22.038Z,3.00
2022-12-12T17:53:52.378Z,3.00
2022-12-12T17:56:22.895Z,3.00
2022-12-12T17:58:54.633Z,3.00
2022-12-12T18:01:31.805Z,2.80
2022-12-12T18:04:17.078Z,2.80
2022-12-12T18:06:46.356Z,2.90
2022-12-12T18:09:18.233Z,2.80
2022-12-12T18:11:45.906Z,2.80
2022-12-12T18:14:18.358Z,2.80
2022-12-12T18:16:51.221Z,2.80
2022-12-12T18:19:19.484Z,2.80
2022-12-12T18:22:02.457Z,2.80
2022-12-12T18:24:34.219Z,2.80
2022-12-12T18:27:07.220Z,2.80
2022-12-12T18:29:37.268Z,2.80
2022-12-12T18:32:05.372Z,2.90
2022-12-12T18:34:35.248Z,2.80
2022-12-12T18:37:02.267Z,2.90
2022-12-12T18:39:33.514Z,2.90
2022-12-12T18:42:09.520Z,2.90
2022-12-12T18:44:38.857Z,2.80
2022-12-12T18:47:05.957Z,2.80
2022-12-12T18:49:36.335Z,2.80
2022-12-12T18:52:06.303Z,2.80
2022-12-12T18:54:35.437Z,2.80
2022-12-12T18:57:05.598Z,2.80
2022-12-12T18:59:32.975Z,2.60
2022-12-12T19:02:00.095Z,2.60
2022-12-12T19:04:27.243Z,2.60
2022-12-12T19:06:55.119Z,2.60
2022-12-12T19:09:25.029Z,2.60
2022-12-12T19:12:02.312Z,2.60
2022-12-12T19:14:45.785Z,2.40
2022-12-12T19:17:20.708Z,2.30
2022-12-12T19:19:58.276Z,2.40
2022-12-12T19:22:44.238Z,2.30
2022-12-12T19:25:18.550Z,2.40
2022-12-12T19:27:49.483Z,2.30
2022-12-12T19:30:22.412Z,2.30
2022-12-12T19:32:56.172Z,2.40
2022-12-12T19:35:23.307Z,2.40
2022-12-12T19:37:53.125Z,2.40
2022-12-12T19:40:23.009Z,2.30
2022-12-12T19:42:57.351Z,2.30
2022-12-12T19:45:27.326Z,2.30
2022-12-12T19:47:59.472Z,2.30
2022-12-12T19:50:29.552Z,2.30
2022-12-12T19:52:56.528Z,2.30
2022-12-12T19:55:26.513Z,2.40
2022-12-12T19:57:58.072Z,2.30
2022-12-12T20:00:25.909Z,2.30
2022-12-12T20:02:52.986Z,2.20
2022-12-12T20:05:19.945Z,2.20
2022-12-12T20:07:46.984Z,2.20
2022-12-12T20:10:16.413Z,2.20
2022-12-12T20:12:54.495Z,2.10
2022-12-12T20:15:26.531Z,2.10
2022-12-12T20:17:53.602Z,2.10
2022-12-12T20:20:20.602Z,2.10
2022-12-12T20:22:47.529Z,2.10
2022-12-12T20:25:20.165Z,2.10
2022-12-12T20:27:47.142Z,2.00
2022-12-12T20:30:17.628Z,2.00
2022-12-12T20:32:45.996Z,1.90
2022-12-12T20:35:12.946Z,2.00
2022-12-12T20:37:40.354Z,1.90
2022-12-12T20:40:09.048Z,1.90
2022-12-12T20:42:36.222Z,1.90
2022-12-12T20:45:03.460Z,1.90
2022-12-12T20:47:32.352Z,1.80
2022-12-12T20:50:01.120Z,1.80
2022-12-12T20:52:29.156Z,1.80
2022-12-12T20:54:57.369Z,1.80
2022-12-12T20:57:24.677Z,1.70
2022-12-12T20:59:51.998Z,1.80
2022-12-12T21:02:18.994Z,1.70
2022-12-12T21:04:45.952Z,1.70
2022-12-12T21:07:14.237Z,1.60
2022-12-12T21:09:41.197Z,1.60
2022-12-12T21:12:08.780Z,1.60
2022-12-12T21:14:37.018Z,1.50
2022-12-12T21:17:07.350Z,1.50
2022-12-12T21:19:34.367Z,1.50
2022-12-12T21:22:01.672Z,1.50
2022-12-12T21:24:31.217Z,1.50
2022-12-12T21:27:01.303Z,1.50
2022-12-12T21:29:28.359Z,1.40
2022-12-12T21:31:58.164Z,1.40
2022-12-12T21:34:25.375Z,1.40
2022-12-12T21:36:56.411Z,1.30
2022-12-12T21:39:30.077Z,1.30
2022-12-12T21:41:57.111Z,1.30
2022-12-12T21:44:24.880Z,1.20
2022-12-12T21:46:58.084Z,1.20
2022-12-12T21:49:28.336Z,1.20
2022-12-12T21:52:01.479Z,1.10
2022-12-12T21:54:30.899Z,1.10
2022-12-12T21:56:58.996Z,1.20
2022-12-12T21:59:26.986Z,1.20
2022-12-12T22:02:00.090Z,1.10
2022-12-12T22:04:27.835Z,1.00
2022-12-12T22:06:54.952Z,1.00
2022-12-12T22:09:22.125Z,1.00
2022-12-12T22:11:52.204Z,0.90
2022-12-12T22:14:30.724Z,0.80
2022-12-12T22:16:57.935Z,0.80
2022-12-12T22:19:25.048Z,0.70
2022-12-12T22:21:58.324Z,0.70
2022-12-12T22:24:26.013Z,0.70
2022-12-12T22:26:54.376Z,0.80
2022-12-12T22:29:21.427Z,0.70
2022-12-12T22:31:52.586Z,0.80
2022-12-12T22:34:23.468Z,0.80
2022-12-12T22:36:54.115Z,0.50
2022-12-12T22:39:28.608Z,0.50
2022-12-12T22:41:57.370Z,0.40
2022-12-12T22:44:25.890Z,0.30
2022-12-12T22:46:55.340Z,0.30
2022-12-12T22:49:34.115Z,0.40
2022-12-12T22:52:01.253Z,0.40
2022-12-12T22:57:10.635Z,0.50
2022-12-12T22:59:37.814Z,0.60
2022-12-12T23:02:05.919Z,0.60
2022-12-12T23:04:36.222Z,0.60
2022-12-12T23:07:03.670Z,0.40
2022-12-12T23:09:33.368Z,0.40
2022-12-12T23:12:03.587Z,0.30
2022-12-12T23:14:31.969Z,0.10
2022-12-12T23:17:05.165Z,0.20
2022-12-12T23:19:32.080Z,0.20
2022-12-12T23:21:59.388Z,0.10
2022-12-12T23:24:31.727Z,0.10
2022-12-12T23:26:58.914Z,0.10
2022-12-12T23:29:34.579Z,0.00
2022-12-12T23:32:03.219Z,-0.20
2022-12-12T23:34:39.613Z,-0.10
2022-12-12T23:37:12.681Z,0.00
2022-12-12T23:39:42.253Z,-0.10
2022-12-12T23:42:09.134Z,-0.10
2022-12-12T23:44:44.844Z,-0.20
2022-12-12T23:47:12.036Z,-0.20
2022-12-12T23:49:44.484Z,-0.20
2022-12-12T23:52:14.302Z,-0.20
2022-12-12T23:54:44.169Z,-0.10
2022-12-12T23:57:23.226Z,-0.20
2022-12-12T23:59:53.820Z,-0.20
